sensor_id;sensor_type;location;lat;lon;timestamp;temperature;humidity
22418;DHT22;11376;50.932;4.442;2022-08-19T00:01:42;21.70;99.90
22418;DHT22;11376;50.932;4.442;2022-08-19T00:04:10;21.70;99.90
22418;DHT22;11376;50.932;4.442;2022-08-19T00:06:37;21.60;99.90
22418;DHT22;11376;50.932;4.442;2022-08-19T00:09:06;21.60;99.90
22418;DHT22;11376;50.932;4.442;2022-08-19T00:11:32;21.60;99.90
22418;DHT22;11376;50.932;4.442;2022-08-19T00:13:58;21.50;99.90
22418;DHT22;11376;50.932;4.442;2022-08-19T00:16:24;21.40;99.90
22418;DHT22;11376;50.932;4.442;2022-08-19T00:18:50;21.30;99.90
22418;DHT22;11376;50.932;4.442;2022-08-19T00:21:16;21.30;99.90
22418;DHT22;11376;50.932;4.442;2022-08-19T00:23:42;21.30;99.90
22418;DHT22;11376;50.932;4.442;2022-08-19T00:26:09;21.20;99.90
22418;DHT22;11376;50.932;4.442;2022-08-19T00:28:36;21.10;99.90
22418;DHT22;11376;50.932;4.442;2022-08-19T00:31:05;21.10;99.90
22418;DHT22;11376;50.932;4.442;2022-08-19T00:33:32;21.10;99.90
22418;DHT22;11376;50.932;4.442;2022-08-19T00:35:59;21.20;99.90
22418;DHT22;11376;50.932;4.442;2022-08-19T00:38:25;21.10;99.90
22418;DHT22;11376;50.932;4.442;2022-08-19T00:40:50;21.10;99.90
22418;DHT22;11376;50.932;4.442;2022-08-19T00:43:20;21.10;99.90
22418;DHT22;11376;50.932;4.442;2022-08-19T00:45:47;21.00;99.90
22418;DHT22;11376;50.932;4.442;2022-08-19T00:48:14;21.00;99.90
22418;DHT22;11376;50.932;4.442;2022-08-19T00:50:42;21.10;99.90
22418;DHT22;11376;50.932;4.442;2022-08-19T00:53:10;21.10;99.90
22418;DHT22;11376;50.932;4.442;2022-08-19T00:55:37;21.10;99.90
22418;DHT22;11376;50.932;4.442;2022-08-19T00:58:08;21.00;99.90
22418;DHT22;11376;50.932;4.442;2022-08-19T01:00:36;21.00;99.90
22418;DHT22;11376;50.932;4.442;2022-08-19T01:03:08;20.90;99.90
22418;DHT22;11376;50.932;4.442;2022-08-19T01:05:34;21.00;99.90
22418;DHT22;11376;50.932;4.442;2022-08-19T01:08:02;20.90;99.90
22418;DHT22;11376;50.932;4.442;2022-08-19T01:10:32;20.90;99.90
22418;DHT22;11376;50.932;4.442;2022-08-19T01:12:59;20.90;99.90
22418;DHT22;11376;50.932;4.442;2022-08-19T01:15:32;20.80;99.90
22418;DHT22;11376;50.932;4.442;2022-08-19T01:18:02;20.80;99.90
22418;DHT22;11376;50.932;4.442;2022-08-19T01:20:29;20.80;99.90
22418;DHT22;11376;50.932;4.442;2022-08-19T01:22:57;20.80;99.90
22418;DHT22;11376;50.932;4.442;2022-08-19T01:25:29;20.70;99.90
22418;DHT22;11376;50.932;4.442;2022-08-19T01:27:57;20.70;99.90
22418;DHT22;11376;50.932;4.442;2022-08-19T01:30:26;20.70;99.90
22418;DHT22;11376;50.932;4.442;2022-08-19T01:32:53;20.80;99.90
22418;DHT22;11376;50.932;4.442;2022-08-19T01:35:20;20.80;99.90
22418;DHT22;11376;50.932;4.442;2022-08-19T01:37:50;20.70;99.90
22418;DHT22;11376;50.932;4.442;2022-08-19T01:40:18;20.80;99.90
22418;DHT22;11376;50.932;4.442;2022-08-19T01:42:49;20.70;99.90
22418;DHT22;11376;50.932;4.442;2022-08-19T01:45:16;20.70;99.90
22418;DHT22;11376;50.932;4.442;2022-08-19T01:47:41;20.70;99.90
22418;DHT22;11376;50.932;4.442;2022-08-19T01:50:09;20.60;99.90
22418;DHT22;11376;50.932;4.442;2022-08-19T01:52:39;20.50;99.90
22418;DHT22;11376;50.932;4.442;2022-08-19T01:55:09;20.50;99.90
22418;DHT22;11376;50.932;4.442;2022-08-19T01:57:36;20.40;99.90
22418;DHT22;11376;50.932;4.442;2022-08-19T02:00:07;20.40;99.90
22418;DHT22;11376;50.932;4.442;2022-08-19T02:02:33;20.40;99.90
22418;DHT22;11376;50.932;4.442;2022-08-19T02:04:59;20.30;99.90
22418;DHT22;11376;50.932;4.442;2022-08-19T02:07:24;20.20;99.90
22418;DHT22;11376;50.932;4.442;2022-08-19T02:09:50;20.10;99.90
22418;DHT22;11376;50.932;4.442;2022-08-19T02:12:16;20.10;99.90
22418;DHT22;11376;50.932;4.442;2022-08-19T02:14:42;20.10;99.90
22418;DHT22;11376;50.932;4.442;2022-08-19T02:17:08;20.10;99.90
22418;DHT22;11376;50.932;4.442;2022-08-19T02:19:34;20.10;99.90
22418;DHT22;11376;50.932;4.442;2022-08-19T02:22:00;20.10;99.90
22418;DHT22;11376;50.932;4.442;2022-08-19T02:24:27;20.10;99.90
22418;DHT22;11376;50.932;4.442;2022-08-19T02:26:53;20.20;99.90
22418;DHT22;11376;50.932;4.442;2022-08-19T02:29:19;20.00;99.90
22418;DHT22;11376;50.932;4.442;2022-08-19T02:31:45;19.90;99.90
22418;DHT22;11376;50.932;4.442;2022-08-19T02:34:11;19.90;99.90
22418;DHT22;11376;50.932;4.442;2022-08-19T02:36:37;19.80;99.90
22418;DHT22;11376;50.932;4.442;2022-08-19T02:39:03;19.70;99.90
22418;DHT22;11376;50.932;4.442;2022-08-19T02:41:31;19.80;99.90
22418;DHT22;11376;50.932;4.442;2022-08-19T02:43:59;19.80;99.90
22418;DHT22;11376;50.932;4.442;2022-08-19T02:46:28;19.90;99.90
22418;DHT22;11376;50.932;4.442;2022-08-19T02:48:57;19.90;99.90
22418;DHT22;11376;50.932;4.442;2022-08-19T02:51:27;19.80;99.90
22418;DHT22;11376;50.932;4.442;2022-08-19T02:53:54;19.70;99.90
22418;DHT22;11376;50.932;4.442;2022-08-19T02:56:20;19.80;99.90
22418;DHT22;11376;50.932;4.442;2022-08-19T02:58:46;19.90;99.90
22418;DHT22;11376;50.932;4.442;2022-08-19T03:01:20;19.80;99.90
22418;DHT22;11376;50.932;4.442;2022-08-19T03:03:46;19.60;99.90
22418;DHT22;11376;50.932;4.442;2022-08-19T03:06:13;19.50;99.90
22418;DHT22;11376;50.932;4.442;2022-08-19T03:08:41;19.50;99.90
22418;DHT22;11376;50.932;4.442;2022-08-19T03:11:31;19.40;99.90
22418;DHT22;11376;50.932;4.442;2022-08-19T03:13:58;19.30;99.90
22418;DHT22;11376;50.932;4.442;2022-08-19T03:16:27;19.40;99.90
22418;DHT22;11376;50.932;4.442;2022-08-19T03:18:55;19.30;99.90
22418;DHT22;11376;50.932;4.442;2022-08-19T03:21:24;19.20;99.90
22418;DHT22;11376;50.932;4.442;2022-08-19T03:23:54;19.20;99.90
22418;DHT22;11376;50.932;4.442;2022-08-19T03:26:19;19.20;99.90
22418;DHT22;11376;50.932;4.442;2022-08-19T03:28:45;19.20;99.90
22418;DHT22;11376;50.932;4.442;2022-08-19T03:31:16;19.20;99.90
22418;DHT22;11376;50.932;4.442;2022-08-19T03:33:42;19.10;99.90
22418;DHT22;11376;50.932;4.442;2022-08-19T03:38:40;19.10;99.90
22418;DHT22;11376;50.932;4.442;2022-08-19T03:41:08;19.00;99.90
22418;DHT22;11376;50.932;4.442;2022-08-19T03:43:36;19.00;99.90
22418;DHT22;11376;50.932;4.442;2022-08-19T03:46:05;19.00;99.90
22418;DHT22;11376;50.932;4.442;2022-08-19T03:48:32;18.90;99.90
22418;DHT22;11376;50.932;4.442;2022-08-19T03:50:58;19.00;99.90
22418;DHT22;11376;50.932;4.442;2022-08-19T03:53:28;18.90;99.90
22418;DHT22;11376;50.932;4.442;2022-08-19T03:55:56;18.80;99.90
22418;DHT22;11376;50.932;4.442;2022-08-19T03:58:22;18.80;99.90
22418;DHT22;11376;50.932;4.442;2022-08-19T04:00:48;18.70;99.90
22418;DHT22;11376;50.932;4.442;2022-08-19T04:03:15;18.60;99.90
22418;DHT22;11376;50.932;4.442;2022-08-19T04:05:40;18.70;99.90
22418;DHT22;11376;50.932;4.442;2022-08-19T04:08:06;18.60;99.90
22418;DHT22;11376;50.932;4.442;2022-08-19T04:10:38;18.80;99.90
22418;DHT22;11376;50.932;4.442;2022-08-19T04:13:04;18.70;99.90
22418;DHT22;11376;50.932;4.442;2022-08-19T04:15:31;18.70;99.90
22418;DHT22;11376;50.932;4.442;2022-08-19T04:18:01;18.60;99.90
22418;DHT22;11376;50.932;4.442;2022-08-19T04:20:27;18.60;99.90
22418;DHT22;11376;50.932;4.442;2022-08-19T04:22:52;18.50;99.90
22418;DHT22;11376;50.932;4.442;2022-08-19T04:25:18;18.40;99.90
22418;DHT22;11376;50.932;4.442;2022-08-19T04:27:43;18.30;99.90
22418;DHT22;11376;50.932;4.442;2022-08-19T04:30:12;18.30;99.90
22418;DHT22;11376;50.932;4.442;2022-08-19T04:32:38;18.40;99.90
22418;DHT22;11376;50.932;4.442;2022-08-19T04:35:04;18.40;99.90
22418;DHT22;11376;50.932;4.442;2022-08-19T04:37:30;18.40;99.90
22418;DHT22;11376;50.932;4.442;2022-08-19T04:39:59;18.30;99.90
22418;DHT22;11376;50.932;4.442;2022-08-19T04:42:44;18.30;99.90
22418;DHT22;11376;50.932;4.442;2022-08-19T04:45:12;18.30;99.90
22418;DHT22;11376;50.932;4.442;2022-08-19T04:47:40;18.10;99.90
22418;DHT22;11376;50.932;4.442;2022-08-19T04:50:09;18.10;99.90
22418;DHT22;11376;50.932;4.442;2022-08-19T04:52:38;18.00;99.90
22418;DHT22;11376;50.932;4.442;2022-08-19T04:55:09;18.20;99.90
22418;DHT22;11376;50.932;4.442;2022-08-19T04:57:35;18.10;99.90
22418;DHT22;11376;50.932;4.442;2022-08-19T05:00:07;18.10;99.90
22418;DHT22;11376;50.932;4.442;2022-08-19T05:02:33;18.20;99.90
22418;DHT22;11376;50.932;4.442;2022-08-19T05:04:59;18.20;99.90
22418;DHT22;11376;50.932;4.442;2022-08-19T05:07:26;18.20;99.90
22418;DHT22;11376;50.932;4.442;2022-08-19T05:09:52;18.20;99.90
22418;DHT22;11376;50.932;4.442;2022-08-19T05:12:18;18.30;99.90
22418;DHT22;11376;50.932;4.442;2022-08-19T05:14:45;18.30;99.90
22418;DHT22;11376;50.932;4.442;2022-08-19T05:17:13;18.40;99.90
22418;DHT22;11376;50.932;4.442;2022-08-19T05:19:38;18.40;99.90
22418;DHT22;11376;50.932;4.442;2022-08-19T05:22:23;18.50;99.90
22418;DHT22;11376;50.932;4.442;2022-08-19T05:24:58;18.60;99.90
22418;DHT22;11376;50.932;4.442;2022-08-19T05:27:24;18.60;99.90
22418;DHT22;11376;50.932;4.442;2022-08-19T05:29:50;18.60;99.90
22418;DHT22;11376;50.932;4.442;2022-08-19T05:32:15;18.60;99.90
22418;DHT22;11376;50.932;4.442;2022-08-19T05:34:41;18.60;99.90
22418;DHT22;11376;50.932;4.442;2022-08-19T05:37:07;18.50;99.90
22418;DHT22;11376;50.932;4.442;2022-08-19T05:39:35;18.60;99.90
22418;DHT22;11376;50.932;4.442;2022-08-19T05:42:04;18.70;99.90
22418;DHT22;11376;50.932;4.442;2022-08-19T05:44:34;18.80;99.90
22418;DHT22;11376;50.932;4.442;2022-08-19T05:47:03;18.80;99.90
22418;DHT22;11376;50.932;4.442;2022-08-19T05:49:30;18.80;99.90
22418;DHT22;11376;50.932;4.442;2022-08-19T05:51:57;18.90;99.90
22418;DHT22;11376;50.932;4.442;2022-08-19T05:54:25;18.90;99.90
22418;DHT22;11376;50.932;4.442;2022-08-19T05:56:52;19.10;99.90
22418;DHT22;11376;50.932;4.442;2022-08-19T05:59:18;19.20;99.90
22418;DHT22;11376;50.932;4.442;2022-08-19T06:01:46;19.20;99.90
22418;DHT22;11376;50.932;4.442;2022-08-19T06:04:16;19.10;99.90
22418;DHT22;11376;50.932;4.442;2022-08-19T06:06:44;19.10;99.90
22418;DHT22;11376;50.932;4.442;2022-08-19T06:09:10;19.20;99.90
22418;DHT22;11376;50.932;4.442;2022-08-19T06:11:45;19.30;99.90
22418;DHT22;11376;50.932;4.442;2022-08-19T06:14:14;19.40;99.90
22418;DHT22;11376;50.932;4.442;2022-08-19T06:16:41;19.40;99.90
22418;DHT22;11376;50.932;4.442;2022-08-19T06:19:10;19.40;99.90
22418;DHT22;11376;50.932;4.442;2022-08-19T06:21:38;19.30;99.90
22418;DHT22;11376;50.932;4.442;2022-08-19T06:24:08;19.40;99.90
22418;DHT22;11376;50.932;4.442;2022-08-19T06:26:37;19.60;99.90
22418;DHT22;11376;50.932;4.442;2022-08-19T06:29:04;19.70;99.90
22418;DHT22;11376;50.932;4.442;2022-08-19T06:31:32;19.80;99.90
22418;DHT22;11376;50.932;4.442;2022-08-19T06:34:00;19.70;99.90
22418;DHT22;11376;50.932;4.442;2022-08-19T06:36:30;19.70;99.90
22418;DHT22;11376;50.932;4.442;2022-08-19T06:39:00;19.80;99.90
22418;DHT22;11376;50.932;4.442;2022-08-19T06:41:27;19.80;99.90
22418;DHT22;11376;50.932;4.442;2022-08-19T06:43:54;19.90;99.90
22418;DHT22;11376;50.932;4.442;2022-08-19T06:46:20;20.00;99.90
22418;DHT22;11376;50.932;4.442;2022-08-19T06:48:47;20.20;99.90
22418;DHT22;11376;50.932;4.442;2022-08-19T06:51:15;20.40;99.90
22418;DHT22;11376;50.932;4.442;2022-08-19T06:53:41;20.40;99.90
22418;DHT22;11376;50.932;4.442;2022-08-19T06:56:12;20.40;99.90
22418;DHT22;11376;50.932;4.442;2022-08-19T06:58:38;20.50;99.90
22418;DHT22;11376;50.932;4.442;2022-08-19T07:01:04;20.70;99.90
22418;DHT22;11376;50.932;4.442;2022-08-19T07:03:31;21.00;99.90
22418;DHT22;11376;50.932;4.442;2022-08-19T07:06:02;21.30;99.90
22418;DHT22;11376;50.932;4.442;2022-08-19T07:08:28;21.40;99.90
22418;DHT22;11376;50.932;4.442;2022-08-19T07:10:53;21.40;99.90
22418;DHT22;11376;50.932;4.442;2022-08-19T07:13:19;21.30;99.90
22418;DHT22;11376;50.932;4.442;2022-08-19T07:15:46;21.30;99.90
22418;DHT22;11376;50.932;4.442;2022-08-19T07:18:12;21.30;99.90
22418;DHT22;11376;50.932;4.442;2022-08-19T07:20:39;21.20;99.90
22418;DHT22;11376;50.932;4.442;2022-08-19T07:23:05;21.20;99.90
22418;DHT22;11376;50.932;4.442;2022-08-19T07:25:30;21.30;99.90
22418;DHT22;11376;50.932;4.442;2022-08-19T07:27:56;21.20;99.90
22418;DHT22;11376;50.932;4.442;2022-08-19T07:30:21;21.20;99.90
22418;DHT22;11376;50.932;4.442;2022-08-19T07:32:48;21.40;99.90
22418;DHT22;11376;50.932;4.442;2022-08-19T07:35:15;21.50;99.90
22418;DHT22;11376;50.932;4.442;2022-08-19T07:37:44;21.30;99.90
22418;DHT22;11376;50.932;4.442;2022-08-19T07:40:11;21.40;99.90
22418;DHT22;11376;50.932;4.442;2022-08-19T07:42:37;21.50;99.90
22418;DHT22;11376;50.932;4.442;2022-08-19T07:45:03;21.70;99.90
22418;DHT22;11376;50.932;4.442;2022-08-19T07:47:29;22.00;99.90
22418;DHT22;11376;50.932;4.442;2022-08-19T07:49:55;22.00;99.90
22418;DHT22;11376;50.932;4.442;2022-08-19T07:52:21;22.00;99.90
22418;DHT22;11376;50.932;4.442;2022-08-19T07:54:48;22.30;99.90
22418;DHT22;11376;50.932;4.442;2022-08-19T07:57:15;22.40;99.90
22418;DHT22;11376;50.932;4.442;2022-08-19T07:59:41;22.30;99.90
22418;DHT22;11376;50.932;4.442;2022-08-19T08:02:08;22.40;99.90
22418;DHT22;11376;50.932;4.442;2022-08-19T08:04:34;22.70;99.90
22418;DHT22;11376;50.932;4.442;2022-08-19T08:07:18;22.90;99.90
22418;DHT22;11376;50.932;4.442;2022-08-19T08:10:04;23.00;99.90
22418;DHT22;11376;50.932;4.442;2022-08-19T08:12:34;23.00;99.90
22418;DHT22;11376;50.932;4.442;2022-08-19T08:15:04;22.80;99.90
22418;DHT22;11376;50.932;4.442;2022-08-19T08:17:31;23.00;99.90
22418;DHT22;11376;50.932;4.442;2022-08-19T08:19:57;23.20;99.90
22418;DHT22;11376;50.932;4.442;2022-08-19T08:22:24;23.70;99.90
22418;DHT22;11376;50.932;4.442;2022-08-19T08:25:15;24.20;99.90
22418;DHT22;11376;50.932;4.442;2022-08-19T08:27:44;24.40;99.90
22418;DHT22;11376;50.932;4.442;2022-08-19T08:30:13;24.40;99.90
22418;DHT22;11376;50.932;4.442;2022-08-19T08:32:40;24.50;99.90
22418;DHT22;11376;50.932;4.442;2022-08-19T08:35:09;24.50;99.90
22418;DHT22;11376;50.932;4.442;2022-08-19T08:37:36;24.60;99.90
22418;DHT22;11376;50.932;4.442;2022-08-19T08:46:01;24.20;99.90
22418;DHT22;11376;50.932;4.442;2022-08-19T08:48:41;24.10;99.90
22418;DHT22;11376;50.932;4.442;2022-08-19T08:51:15;24.10;99.90
22418;DHT22;11376;50.932;4.442;2022-08-19T08:53:44;24.30;99.90
22418;DHT22;11376;50.932;4.442;2022-08-19T08:56:12;24.20;99.90
22418;DHT22;11376;50.932;4.442;2022-08-19T08:59:04;24.20;99.90
22418;DHT22;11376;50.932;4.442;2022-08-19T09:01:34;24.20;99.90
22418;DHT22;11376;50.932;4.442;2022-08-19T09:04:04;23.70;99.90
22418;DHT22;11376;50.932;4.442;2022-08-19T09:06:55;23.70;99.90
22418;DHT22;11376;50.932;4.442;2022-08-19T09:09:30;23.80;99.90
22418;DHT22;11376;50.932;4.442;2022-08-19T09:15:18;23.90;99.90
22418;DHT22;11376;50.932;4.442;2022-08-19T09:17:26;24.10;99.90
22418;DHT22;11376;50.932;4.442;2022-08-19T09:20:19;24.20;99.90
22418;DHT22;11376;50.932;4.442;2022-08-19T09:22:45;24.30;99.90
22418;DHT22;11376;50.932;4.442;2022-08-19T09:25:15;24.30;99.90
22418;DHT22;11376;50.932;4.442;2022-08-19T09:27:42;23.90;99.90
22418;DHT22;11376;50.932;4.442;2022-08-19T09:30:12;24.00;99.90
22418;DHT22;11376;50.932;4.442;2022-08-19T09:32:38;23.90;99.90
22418;DHT22;11376;50.932;4.442;2022-08-19T09:35:07;23.90;99.90
22418;DHT22;11376;50.932;4.442;2022-08-19T09:37:33;24.00;99.90
22418;DHT22;11376;50.932;4.442;2022-08-19T09:39:59;23.90;99.90
22418;DHT22;11376;50.932;4.442;2022-08-19T09:42:25;24.00;99.90
22418;DHT22;11376;50.932;4.442;2022-08-19T09:44:50;24.20;99.90
22418;DHT22;11376;50.932;4.442;2022-08-19T09:47:16;24.40;99.90
22418;DHT22;11376;50.932;4.442;2022-08-19T09:49:42;24.80;99.90
22418;DHT22;11376;50.932;4.442;2022-08-19T09:52:09;24.60;99.90
22418;DHT22;11376;50.932;4.442;2022-08-19T09:54:37;24.80;99.90
22418;DHT22;11376;50.932;4.442;2022-08-19T09:57:03;25.10;99.90
22418;DHT22;11376;50.932;4.442;2022-08-19T09:59:28;25.00;99.90
22418;DHT22;11376;50.932;4.442;2022-08-19T10:01:54;24.70;99.90
22418;DHT22;11376;50.932;4.442;2022-08-19T10:04:20;24.50;99.90
22418;DHT22;11376;50.932;4.442;2022-08-19T10:06:47;24.60;99.90
22418;DHT22;11376;50.932;4.442;2022-08-19T10:09:15;24.70;99.90
22418;DHT22;11376;50.932;4.442;2022-08-19T10:11:43;24.70;99.90
22418;DHT22;11376;50.932;4.442;2022-08-19T10:14:08;25.00;99.90
22418;DHT22;11376;50.932;4.442;2022-08-19T10:16:36;25.20;99.90
22418;DHT22;11376;50.932;4.442;2022-08-19T10:19:03;25.20;99.90
22418;DHT22;11376;50.932;4.442;2022-08-19T10:21:32;25.30;99.90
22418;DHT22;11376;50.932;4.442;2022-08-19T10:24:00;25.20;99.90
22418;DHT22;11376;50.932;4.442;2022-08-19T10:26:30;25.00;99.90
22418;DHT22;11376;50.932;4.442;2022-08-19T10:28:56;25.20;99.90
22418;DHT22;11376;50.932;4.442;2022-08-19T10:31:26;25.30;99.90
22418;DHT22;11376;50.932;4.442;2022-08-19T10:33:53;25.00;99.90
22418;DHT22;11376;50.932;4.442;2022-08-19T10:36:26;25.00;99.90
22418;DHT22;11376;50.932;4.442;2022-08-19T10:38:54;25.00;99.90
22418;DHT22;11376;50.932;4.442;2022-08-19T10:41:25;25.10;99.90
22418;DHT22;11376;50.932;4.442;2022-08-19T10:43:53;25.20;99.90
22418;DHT22;11376;50.932;4.442;2022-08-19T10:46:21;25.30;99.90
22418;DHT22;11376;50.932;4.442;2022-08-19T10:48:47;25.40;99.90
22418;DHT22;11376;50.932;4.442;2022-08-19T10:51:13;25.50;99.90
22418;DHT22;11376;50.932;4.442;2022-08-19T10:53:58;25.30;99.90
22418;DHT22;11376;50.932;4.442;2022-08-19T10:56:24;25.60;99.90
22418;DHT22;11376;50.932;4.442;2022-08-19T10:59:09;25.80;99.90
22418;DHT22;11376;50.932;4.442;2022-08-19T11:01:35;25.90;99.90
22418;DHT22;11376;50.932;4.442;2022-08-19T11:04:02;25.90;99.90
22418;DHT22;11376;50.932;4.442;2022-08-19T11:06:29;25.70;99.90
22418;DHT22;11376;50.932;4.442;2022-08-19T11:08:56;25.50;99.90
22418;DHT22;11376;50.932;4.442;2022-08-19T11:11:22;25.20;99.90
22418;DHT22;11376;50.932;4.442;2022-08-19T11:13:48;25.20;99.90
22418;DHT22;11376;50.932;4.442;2022-08-19T11:16:20;24.80;99.90
22418;DHT22;11376;50.932;4.442;2022-08-19T11:18:49;24.70;99.90
22418;DHT22;11376;50.932;4.442;2022-08-19T11:21:18;24.80;99.90
22418;DHT22;11376;50.932;4.442;2022-08-19T11:23:46;24.70;99.90
22418;DHT22;11376;50.932;4.442;2022-08-19T11:26:13;24.30;99.90
22418;DHT22;11376;50.932;4.442;2022-08-19T11:28:39;24.20;99.90
22418;DHT22;11376;50.932;4.442;2022-08-19T11:31:10;24.40;99.90
22418;DHT22;11376;50.932;4.442;2022-08-19T11:33:37;24.70;99.90
22418;DHT22;11376;50.932;4.442;2022-08-19T11:36:03;25.00;99.90
22418;DHT22;11376;50.932;4.442;2022-08-19T11:38:28;25.00;99.90
22418;DHT22;11376;50.932;4.442;2022-08-19T11:41:00;25.20;99.90
22418;DHT22;11376;50.932;4.442;2022-08-19T11:43:26;25.70;99.90
22418;DHT22;11376;50.932;4.442;2022-08-19T11:45:53;25.60;99.90
22418;DHT22;11376;50.932;4.442;2022-08-19T11:48:19;25.30;99.90
22418;DHT22;11376;50.932;4.442;2022-08-19T11:50:49;25.30;99.90
22418;DHT22;11376;50.932;4.442;2022-08-19T11:53:16;25.00;99.90
22418;DHT22;11376;50.932;4.442;2022-08-19T11:55:43;25.00;99.90
22418;DHT22;11376;50.932;4.442;2022-08-19T11:58:10;25.20;99.90
22418;DHT22;11376;50.932;4.442;2022-08-19T12:00:37;25.60;99.90
22418;DHT22;11376;50.932;4.442;2022-08-19T12:03:03;25.80;99.90
22418;DHT22;11376;50.932;4.442;2022-08-19T12:05:28;26.00;99.90
22418;DHT22;11376;50.932;4.442;2022-08-19T12:07:54;26.10;99.90
22418;DHT22;11376;50.932;4.442;2022-08-19T12:10:20;26.10;99.90
22418;DHT22;11376;50.932;4.442;2022-08-19T12:12:46;26.60;99.90
22418;DHT22;11376;50.932;4.442;2022-08-19T12:15:12;27.20;99.90
22418;DHT22;11376;50.932;4.442;2022-08-19T12:17:38;27.70;99.90
22418;DHT22;11376;50.932;4.442;2022-08-19T12:20:04;28.30;99.90
22418;DHT22;11376;50.932;4.442;2022-08-19T12:22:31;28.60;99.90
22418;DHT22;11376;50.932;4.442;2022-08-19T12:24:56;28.60;99.90
22418;DHT22;11376;50.932;4.442;2022-08-19T12:27:23;28.70;99.90
22418;DHT22;11376;50.932;4.442;2022-08-19T12:29:49;28.50;99.90
22418;DHT22;11376;50.932;4.442;2022-08-19T12:32:15;28.30;99.90
22418;DHT22;11376;50.932;4.442;2022-08-19T12:34:41;28.30;99.90
22418;DHT22;11376;50.932;4.442;2022-08-19T12:37:07;28.10;99.90
22418;DHT22;11376;50.932;4.442;2022-08-19T12:39:39;28.30;99.90
22418;DHT22;11376;50.932;4.442;2022-08-19T12:42:06;28.20;99.90
22418;DHT22;11376;50.932;4.442;2022-08-19T12:44:34;28.30;99.90
22418;DHT22;11376;50.932;4.442;2022-08-19T12:47:00;28.50;99.90
22418;DHT22;11376;50.932;4.442;2022-08-19T12:49:28;28.60;99.90
22418;DHT22;11376;50.932;4.442;2022-08-19T12:51:54;28.60;99.90
22418;DHT22;11376;50.932;4.442;2022-08-19T12:54:19;28.40;99.90
22418;DHT22;11376;50.932;4.442;2022-08-19T12:56:45;28.80;99.90
22418;DHT22;11376;50.932;4.442;2022-08-19T12:59:11;28.70;99.90
22418;DHT22;11376;50.932;4.442;2022-08-19T13:01:37;28.60;99.90
22418;DHT22;11376;50.932;4.442;2022-08-19T13:04:03;28.40;99.90
22418;DHT22;11376;50.932;4.442;2022-08-19T13:06:29;28.40;99.90
22418;DHT22;11376;50.932;4.442;2022-08-19T13:08:55;28.60;99.90
22418;DHT22;11376;50.932;4.442;2022-08-19T13:11:22;30.60;99.90
22418;DHT22;11376;50.932;4.442;2022-08-19T13:13:52;32.20;99.90
22418;DHT22;11376;50.932;4.442;2022-08-19T13:16:20;31.80;99.90
22418;DHT22;11376;50.932;4.442;2022-08-19T13:18:47;31.80;99.90
22418;DHT22;11376;50.932;4.442;2022-08-19T13:21:13;31.10;99.90
22418;DHT22;11376;50.932;4.442;2022-08-19T13:23:39;30.80;99.90
22418;DHT22;11376;50.932;4.442;2022-08-19T13:26:07;30.80;99.90
22418;DHT22;11376;50.932;4.442;2022-08-19T13:28:34;30.40;99.90
22418;DHT22;11376;50.932;4.442;2022-08-19T13:31:20;30.30;99.90
22418;DHT22;11376;50.932;4.442;2022-08-19T13:34:10;31.40;99.90
22418;DHT22;11376;50.932;4.442;2022-08-19T13:36:36;32.80;99.90
22418;DHT22;11376;50.932;4.442;2022-08-19T13:39:03;32.80;99.90
22418;DHT22;11376;50.932;4.442;2022-08-19T13:41:29;32.50;99.90
22418;DHT22;11376;50.932;4.442;2022-08-19T13:43:56;32.90;99.90
22418;DHT22;11376;50.932;4.442;2022-08-19T13:46:21;34.20;99.70
22418;DHT22;11376;50.932;4.442;2022-08-19T13:48:47;34.80;97.10
22418;DHT22;11376;50.932;4.442;2022-08-19T13:51:16;34.80;96.30
22418;DHT22;11376;50.932;4.442;2022-08-19T13:53:43;33.90;97.30
22418;DHT22;11376;50.932;4.442;2022-08-19T13:56:12;33.00;98.90
22418;DHT22;11376;50.932;4.442;2022-08-19T13:58:38;32.60;99.40
22418;DHT22;11376;50.932;4.442;2022-08-19T14:01:05;32.20;99.90
22418;DHT22;11376;50.932;4.442;2022-08-19T14:03:33;33.70;98.90
22418;DHT22;11376;50.932;4.442;2022-08-19T14:05:58;35.50;95.80
22418;DHT22;11376;50.932;4.442;2022-08-19T14:08:24;35.00;94.70
22418;DHT22;11376;50.932;4.442;2022-08-19T14:10:50;35.30;94.10
22418;DHT22;11376;50.932;4.442;2022-08-19T14:13:19;34.40;94.60
22418;DHT22;11376;50.932;4.442;2022-08-19T14:15:45;33.50;95.40
22418;DHT22;11376;50.932;4.442;2022-08-19T14:18:13;32.60;97.20
22418;DHT22;11376;50.932;4.442;2022-08-19T14:20:38;32.30;98.50
22418;DHT22;11376;50.932;4.442;2022-08-19T14:23:04;31.90;99.40
22418;DHT22;11376;50.932;4.442;2022-08-19T14:25:33;31.20;99.90
22418;DHT22;11376;50.932;4.442;2022-08-19T14:28:00;30.50;99.90
22418;DHT22;11376;50.932;4.442;2022-08-19T14:30:29;29.80;99.90
22418;DHT22;11376;50.932;4.442;2022-08-19T14:32:57;28.80;99.90
22418;DHT22;11376;50.932;4.442;2022-08-19T14:35:24;27.80;99.90
22418;DHT22;11376;50.932;4.442;2022-08-19T14:37:51;27.20;99.90
22418;DHT22;11376;50.932;4.442;2022-08-19T14:40:21;26.90;99.90
22418;DHT22;11376;50.932;4.442;2022-08-19T14:42:51;26.70;99.90
22418;DHT22;11376;50.932;4.442;2022-08-19T14:45:17;26.50;99.90
22418;DHT22;11376;50.932;4.442;2022-08-19T14:47:43;26.30;99.90
22418;DHT22;11376;50.932;4.442;2022-08-19T14:50:10;26.30;99.90
22418;DHT22;11376;50.932;4.442;2022-08-19T14:52:36;26.50;99.90
22418;DHT22;11376;50.932;4.442;2022-08-19T14:55:03;26.50;99.90
22418;DHT22;11376;50.932;4.442;2022-08-19T14:57:29;26.70;99.90
22418;DHT22;11376;50.932;4.442;2022-08-19T14:59:55;26.20;99.90
22418;DHT22;11376;50.932;4.442;2022-08-19T15:02:20;25.90;99.90
22418;DHT22;11376;50.932;4.442;2022-08-19T15:04:46;26.30;99.90
22418;DHT22;11376;50.932;4.442;2022-08-19T15:07:12;27.00;99.90
22418;DHT22;11376;50.932;4.442;2022-08-19T15:09:37;27.70;99.90
22418;DHT22;11376;50.932;4.442;2022-08-19T15:12:03;27.50;99.90
22418;DHT22;11376;50.932;4.442;2022-08-19T15:14:29;27.50;99.90
22418;DHT22;11376;50.932;4.442;2022-08-19T15:17:01;27.30;99.90
22418;DHT22;11376;50.932;4.442;2022-08-19T15:19:26;27.10;99.90
22418;DHT22;11376;50.932;4.442;2022-08-19T15:21:53;27.20;99.90
22418;DHT22;11376;50.932;4.442;2022-08-19T15:24:20;27.10;99.90
22418;DHT22;11376;50.932;4.442;2022-08-19T15:26:45;27.20;99.90
22418;DHT22;11376;50.932;4.442;2022-08-19T15:29:11;27.10;99.90
22418;DHT22;11376;50.932;4.442;2022-08-19T15:31:42;27.10;99.90
22418;DHT22;11376;50.932;4.442;2022-08-19T15:34:07;27.10;99.90
22418;DHT22;11376;50.932;4.442;2022-08-19T15:36:34;27.40;99.90
22418;DHT22;11376;50.932;4.442;2022-08-19T15:39:00;27.30;99.90
22418;DHT22;11376;50.932;4.442;2022-08-19T15:41:28;27.30;99.90
22418;DHT22;11376;50.932;4.442;2022-08-19T15:44:03;26.90;99.90
22418;DHT22;11376;50.932;4.442;2022-08-19T15:46:33;26.80;99.90